Time;durP1;ratioP1;P1;durP2;ratioP2;P2;SDS_P1;SDS_P2;PMS_P1;PMS_P2;Temp;Humidity;BMP_temperature;BMP_pressure;BME280_temperature;BME280_humidity;BME280_pressure;Samples;Min_cycle;Max_cycle;Signal;HPM_P1;HPM_P2
2023/11/08 00:01:53;;;;;;;1.83;0.70;;;;;;;9.67;46.66;100782.91;4993323;28;20124;-82
2023/11/08 00:04:21;;;;;;;2.05;0.98;;;;;;;9.67;47.20;100783.78;4988355;28;20626;-85
2023/11/08 00:06:49;;;;;;;1.80;0.80;;;;;;;9.65;46.55;100785.81;4991064;28;20193;-83
2023/11/08 00:09:18;;;;;;;2.13;0.77;;;;;;;9.65;46.80;100783.06;4996279;28;20065;-82
2023/11/08 00:11:46;;;;;;;3.03;0.80;;;;;;;9.62;47.30;100783.31;4991383;28;20109;-83
2023/11/08 00:14:13;;;;;;;0.88;0.60;;;;;;;9.65;47.26;100777.63;4993158;28;20053;-82
2023/11/08 00:16:41;;;;;;;2.65;0.80;;;;;;;9.64;47.07;100789.53;4988346;28;20046;-83
2023/11/08 00:19:11;;;;;;;1.55;0.70;;;;;;;9.66;47.16;100789.41;4988443;28;20701;-83
2023/11/08 00:21:39;;;;;;;2.97;0.90;;;;;;;9.63;47.33;100787.78;4992558;28;20052;-83
2023/11/08 00:24:08;;;;;;;2.78;1.17;;;;;;;9.62;47.23;100790.66;4992401;28;20042;-83
2023/11/08 00:26:36;;;;;;;1.85;0.80;;;;;;;9.63;47.24;100793.25;5001548;28;20050;-83
2023/11/08 00:29:04;;;;;;;2.22;0.85;;;;;;;9.63;47.31;100793.25;5001855;28;20042;-82
2023/11/08 00:31:32;;;;;;;2.38;0.85;;;;;;;9.61;47.06;100810.78;4993357;28;20061;-82
2023/11/08 00:34:00;;;;;;;1.25;0.65;;;;;;;9.62;47.46;100798.84;4990270;28;20901;-82
2023/11/08 00:36:30;;;;;;;1.75;1.00;;;;;;;9.63;47.38;100798.72;4991712;28;20078;-82
2023/11/08 00:38:58;;;;;;;2.22;0.77;;;;;;;9.60;47.49;100798.09;4970200;28;20059;-83
2023/11/08 00:41:26;;;;;;;3.47;0.80;;;;;;;9.62;47.52;100807.91;4990024;28;20054;-83
2023/11/08 00:43:56;;;;;;;2.20;0.80;;;;;;;9.62;47.57;100799.72;4990042;28;20046;-82
2023/11/08 00:46:25;;;;;;;1.95;0.73;;;;;;;9.62;47.14;100812.50;4985456;28;20066;-83
2023/11/08 00:48:53;;;;;;;2.05;0.80;;;;;;;9.61;47.25;100814.38;4983265;28;20109;-83
2023/11/08 00:51:21;;;;;;;1.45;0.75;;;;;;;9.60;47.21;100809.91;5005625;28;20054;-83
2023/11/08 00:53:50;;;;;;;3.47;1.35;;;;;;;9.61;47.11;100811.66;5010028;28;20061;-83
2023/11/08 00:56:18;;;;;;;2.20;0.70;;;;;;;9.60;47.68;100809.03;5006000;28;20046;-83
2023/11/08 00:58:46;;;;;;;1.63;0.77;;;;;;;9.61;47.50;100794.38;4997827;28;20068;-83
2023/11/08 01:01:14;;;;;;;2.65;0.93;;;;;;;9.60;47.24;100811.75;5001546;28;20469;-83
2023/11/08 01:03:42;;;;;;;2.13;0.70;;;;;;;9.61;47.53;100814.38;4999758;28;20077;-82
2023/11/08 01:06:10;;;;;;;2.10;0.90;;;;;;;9.60;47.25;100815.38;4995956;28;20062;-83
2023/11/08 01:08:38;;;;;;;2.30;0.80;;;;;;;9.60;47.48;100809.03;5001493;28;20120;-82
2023/11/08 01:11:07;;;;;;;2.30;0.70;;;;;;;9.62;47.03;100807.91;4985371;28;20073;-81
2023/11/08 01:13:36;;;;;;;1.98;0.90;;;;;;;9.60;47.63;100811.75;4991553;28;20524;-82
2023/11/08 01:16:13;;;;;;;1.75;0.75;;;;;;;9.63;47.46;100800.59;4991892;28;20136;-82
2023/11/08 01:18:42;;;;;;;1.25;0.73;;;;;;;9.59;47.50;100819.09;4992282;28;20049;-84
2023/11/08 01:21:10;;;;;;;2.83;0.85;;;;;;;9.60;47.70;100818.09;4994304;28;20046;-82
2023/11/08 01:23:38;;;;;;;1.60;0.82;;;;;;;9.59;47.60;100818.22;5014352;28;20124;-84
2023/11/08 01:26:09;;;;;;;2.33;0.70;;;;;;;9.60;46.97;100814.50;4998193;28;20057;-84
2023/11/08 01:28:37;;;;;;;1.83;0.85;;;;;;;9.59;47.41;100819.09;5009343;28;20054;-83
2023/11/08 01:31:05;;;;;;;2.30;0.70;;;;;;;9.59;47.15;100823.69;4986952;28;20176;-84
2023/11/08 01:33:33;;;;;;;2.03;0.77;;;;;;;9.57;47.02;100826.56;4992376;28;20077;-84
2023/11/08 01:36:01;;;;;;;2.08;0.93;;;;;;;9.57;47.03;100814.78;4991416;28;20058;-85
2023/11/08 01:38:30;;;;;;;2.72;0.95;;;;;;;9.56;47.69;100824.84;4990480;28;20054;-82
2023/11/08 01:40:58;;;;;;;1.83;0.75;;;;;;;9.58;47.43;100828.28;5008325;28;20124;-83
2023/11/08 01:43:28;;;;;;;2.72;0.90;;;;;;;9.61;47.37;100822.56;4991558;28;20153;-84
2023/11/08 01:46:05;;;;;;;1.48;0.85;;;;;;;9.62;47.53;100824.31;4989211;28;20050;-81
2023/11/08 01:48:34;;;;;;;3.08;0.93;;;;;;;9.61;47.18;100832.63;4998332;28;20477;-82
2023/11/08 01:51:03;;;;;;;2.22;0.85;;;;;;;9.60;47.06;100825.44;4993735;28;20084;-81
2023/11/08 01:53:35;;;;;;;2.72;1.00;;;;;;;9.61;47.07;100830.78;4988392;28;20054;-84
2023/11/08 01:56:04;;;;;;;1.67;0.90;;;;;;;9.57;47.42;100833.91;4990337;28;21030;-84
2023/11/08 01:58:37;;;;;;;2.55;0.73;;;;;;;9.62;47.38;100831.63;4992830;28;20046;-83
2023/11/08 02:01:07;;;;;;;2.92;0.85;;;;;;;9.58;47.36;100831.00;4988207;28;20130;-83
2023/11/08 02:03:36;;;;;;;1.58;0.80;;;;;;;9.60;47.13;100834.50;4992046;28;20064;-82
2023/11/08 02:06:07;;;;;;;2.30;1.10;;;;;;;9.60;47.27;100833.63;4990104;28;20613;-83
2023/11/08 02:08:36;;;;;;;2.58;0.85;;;;;;;9.60;47.68;100823.56;4990752;28;20046;-82
2023/11/08 02:11:04;;;;;;;2.05;0.70;;;;;;;9.59;47.48;100835.50;4987953;28;20552;-82
2023/11/08 02:13:34;;;;;;;1.35;0.77;;;;;;;9.61;47.53;100836.22;4980553;28;20085;-81
2023/11/08 02:16:03;;;;;;;3.38;0.80;;;;;;;9.59;47.22;100829.16;4971049;28;20190;-83
2023/11/08 02:18:31;;;;;;;2.45;0.85;;;;;;;9.57;47.50;100832.03;4976328;28;20062;-83
2023/11/08 02:21:00;;;;;;;1.20;0.90;;;;;;;9.61;47.35;100832.63;4994406;28;20053;-83
2023/11/08 02:23:30;;;;;;;2.45;0.90;;;;;;;9.61;47.17;100836.22;4992718;28;20054;-82
2023/11/08 02:26:00;;;;;;;3.20;0.70;;;;;;;9.61;47.55;100830.78;4997181;28;20053;-81
2023/11/08 02:28:28;;;;;;;3.00;0.70;;;;;;;9.62;47.34;100834.38;5017012;28;20144;-81
2023/11/08 02:30:56;;;;;;;2.00;0.70;;;;;;;9.62;47.20;100840.72;5013956;28;20068;-80
2023/11/08 02:33:25;;;;;;;2.03;0.70;;;;;;;9.61;47.72;100841.69;5000792;28;20583;-82
2023/11/08 02:35:54;;;;;;;2.75;0.90;;;;;;;9.61;47.23;100841.69;4990266;28;20052;-85
2023/11/08 02:38:23;;;;;;;2.88;1.15;;;;;;;9.61;47.25;100838.09;4993421;28;20054;-83
2023/11/08 02:40:52;;;;;;;1.58;0.70;;;;;;;9.62;47.06;100837.09;4992847;28;20057;-83
2023/11/08 02:43:22;;;;;;;2.15;0.75;;;;;;;9.62;47.17;100840.72;4992587;28;20081;-84
2023/11/08 02:45:50;;;;;;;2.40;0.90;;;;;;;9.59;47.36;100840.09;4978391;28;20050;-83
2023/11/08 02:48:18;;;;;;;2.25;0.75;;;;;;;9.61;47.25;100849.03;4972595;28;20527;-83
2023/11/08 02:50:48;;;;;;;1.42;0.70;;;;;;;9.59;47.25;100846.41;4987765;28;20057;-83
2023/11/08 02:53:15;;;;;;;2.10;0.90;;;;;;;9.59;47.52;100840.94;5006252;28;20060;-83
2023/11/08 02:55:44;;;;;;;2.47;0.70;;;;;;;9.58;46.93;100841.94;4990824;28;20173;-82
2023/11/08 02:58:11;;;;;;;2.65;0.90;;;;;;;9.58;47.62;100839.22;4989447;28;20168;-82
2023/11/08 03:00:41;;;;;;;3.15;0.80;;;;;;;9.60;47.26;100850.88;4987193;28;20168;-82
2023/11/08 03:03:09;;;;;;;2.47;0.88;;;;;;;9.59;47.01;100851.00;4991260;28;20526;-82
2023/11/08 03:05:37;;;;;;;2.13;0.73;;;;;;;9.59;46.98;100849.16;4993581;28;20097;-81
2023/11/08 03:08:06;;;;;;;1.65;0.63;;;;;;;9.59;47.23;100848.28;4989570;28;20126;-81
2023/11/08 03:10:35;;;;;;;2.20;0.80;;;;;;;9.58;46.98;100847.41;4986444;28;20038;-82
2023/11/08 03:13:04;;;;;;;2.38;0.88;;;;;;;9.58;47.06;100846.53;4992222;28;20137;-82
2023/11/08 03:15:32;;;;;;;1.38;0.77;;;;;;;9.57;47.17;100847.56;4991376;28;20063;-82
2023/11/08 03:18:03;;;;;;;2.22;0.82;;;;;;;9.59;46.95;100848.28;4984460;28;20056;-81
2023/11/08 03:20:31;;;;;;;1.63;0.70;;;;;;;9.57;46.94;100845.69;4990621;28;20066;-82
2023/11/08 03:22:59;;;;;;;1.05;0.60;;;;;;;9.58;46.51;100857.47;4990560;28;20132;-82
2023/11/08 03:25:27;;;;;;;2.35;0.80;;;;;;;9.57;47.08;100856.63;5002703;28;20053;-83
2023/11/08 03:27:54;;;;;;;2.05;0.80;;;;;;;9.56;47.03;100854.88;4998340;28;20047;-80
2023/11/08 03:30:23;;;;;;;1.33;0.80;;;;;;;9.56;47.10;100868.56;4997517;28;20848;-82
2023/11/08 03:32:51;;;;;;;1.98;0.80;;;;;;;9.56;46.81;100867.69;4995520;28;20082;-82
2023/11/08 03:35:20;;;;;;;2.25;0.80;;;;;;;9.56;46.96;100874.00;4989076;28;20049;-84
2023/11/08 03:37:48;;;;;;;1.60;0.90;;;;;;;9.55;46.97;100874.13;4988396;28;20058;-83
2023/11/08 03:40:17;;;;;;;2.08;0.90;;;;;;;9.56;46.78;100873.16;4987970;28;20054;-82
2023/11/08 03:42:45;;;;;;;2.88;1.13;;;;;;;9.56;47.25;100884.06;4992854;28;20050;-82
2023/11/08 03:45:14;;;;;;;4.18;0.95;;;;;;;9.55;46.84;100885.94;4997339;28;20054;-83
2023/11/08 03:47:42;;;;;;;0.88;0.60;;;;;;;9.56;47.00;100884.94;5002392;28;20062;-82
2023/11/08 03:50:10;;;;;;;2.58;0.80;;;;;;;9.55;47.17;100872.28;5000698;28;20708;-83
2023/11/08 03:52:40;;;;;;;1.77;0.82;;;;;;;9.56;47.26;100882.22;5001696;28;20646;-83
2023/11/08 03:55:09;;;;;;;1.45;0.68;;;;;;;9.54;47.10;100886.94;5001763;28;20050;-83
2023/11/08 03:57:37;;;;;;;1.55;0.75;;;;;;;9.54;46.96;100884.19;5007584;28;20039;-82
2023/11/08 04:00:08;;;;;;;1.65;0.80;;;;;;;9.55;47.07;100885.94;4988213;28;20050;-83
2023/11/08 04:02:38;;;;;;;2.30;0.70;;;;;;;9.53;46.84;100887.06;5006428;28;20150;-83
2023/11/08 04:05:07;;;;;;;0.70;0.70;;;;;;;9.54;47.07;100884.19;5014548;28;20054;-81
2023/11/08 04:07:35;;;;;;;2.65;0.90;;;;;;;9.53;47.10;100887.06;5014390;28;20050;-82
2023/11/08 04:10:05;;;;;;;2.15;0.90;;;;;;;9.54;47.20;100892.41;5006219;28;20375;-83
2023/11/08 04:12:33;;;;;;;2.47;0.88;;;;;;;9.55;47.18;100887.81;4999807;28;20096;-83
2023/11/08 04:15:01;;;;;;;2.33;0.85;;;;;;;9.53;46.70;100890.66;5006429;28;20056;-82
2023/11/08 04:17:29;;;;;;;2.58;1.00;;;;;;;9.54;46.70;100888.78;5002154;28;20066;-83
2023/11/08 04:19:58;;;;;;;1.92;0.80;;;;;;;9.51;46.90;100889.91;5008888;28;20049;-83
2023/11/08 04:22:25;;;;;;;1.65;1.00;;;;;;;9.53;46.88;100892.50;5008060;28;20066;-82
2023/11/08 04:24:53;;;;;;;2.92;0.93;;;;;;;9.52;47.10;100893.50;5019393;28;20162;-80
2023/11/08 04:27:23;;;;;;;3.20;0.90;;;;;;;9.52;47.16;100891.66;4996345;28;21192;-83
2023/11/08 04:29:51;;;;;;;2.47;0.90;;;;;;;9.49;47.08;100894.66;4993392;28;20050;-83
2023/11/08 04:32:18;;;;;;;3.17;1.45;;;;;;;9.48;47.20;100895.63;4996315;28;20065;-84
2023/11/08 04:34:48;;;;;;;2.08;1.00;;;;;;;9.48;47.11;100890.19;4999865;28;20069;-83
2023/11/08 04:37:17;;;;;;;1.65;0.80;;;;;;;9.46;46.91;100890.28;4998162;28;20100;-84
2023/11/08 04:39:46;;;;;;;2.45;1.00;;;;;;;9.43;47.30;100890.53;5000680;28;20065;-84
2023/11/08 04:42:14;;;;;;;2.45;0.88;;;;;;;9.46;46.83;100894.88;5001400;28;20061;-82
2023/11/08 04:44:47;;;;;;;2.03;0.90;;;;;;;9.46;47.63;100898.50;4999392;28;20053;-82
2023/11/08 04:47:18;;;;;;;3.00;0.80;;;;;;;9.42;46.95;100888.78;5002204;28;20048;-81
2023/11/08 04:49:47;;;;;;;1.27;0.82;;;;;;;9.43;47.15;100895.13;5021447;28;20042;-83
2023/11/08 04:52:15;;;;;;;2.53;0.90;;;;;;;9.43;47.05;100885.06;5005487;28;20061;-82
2023/11/08 04:54:45;;;;;;;2.65;0.80;;;;;;;9.42;47.10;100888.78;5003909;28;20062;-82
2023/11/08 04:57:22;;;;;;;1.85;0.80;;;;;;;9.42;46.89;100887.94;5002751;28;20397;-83
2023/11/08 04:59:51;;;;;;;2.78;0.85;;;;;;;9.41;47.02;100883.50;5002919;28;20046;-83
2023/11/08 05:02:20;;;;;;;2.20;0.73;;;;;;;9.40;46.93;100890.81;5019562;28;20042;-84
2023/11/08 05:04:49;;;;;;;2.53;0.82;;;;;;;9.37;47.34;100892.88;5002125;28;20045;-83
2023/11/08 05:07:19;;;;;;;2.47;0.90;;;;;;;9.37;47.48;100899.22;5003028;28;20049;-82
2023/11/08 05:09:48;;;;;;;3.53;1.00;;;;;;;9.36;47.33;100896.59;5021449;28;20034;-83
2023/11/08 05:12:19;;;;;;;3.40;0.95;;;;;;;9.35;47.22;100893.00;5003401;28;20768;-82
2023/11/08 05:14:47;;;;;;;2.22;0.80;;;;;;;9.35;47.29;100892.13;5021199;28;20051;-84
2023/11/08 05:17:16;;;;;;;3.03;1.00;;;;;;;9.33;47.21;100894.97;5002501;28;20453;-84
2023/11/08 05:19:45;;;;;;;2.83;1.10;;;;;;;9.34;47.07;100894.00;5003846;28;20470;-84
2023/11/08 05:22:13;;;;;;;2.60;1.10;;;;;;;9.34;47.03;100902.19;4996210;28;20101;-84
2023/11/08 05:24:41;;;;;;;2.40;1.00;;;;;;;9.33;47.35;100897.72;4983358;28;20070;-84
2023/11/08 05:27:11;;;;;;;2.22;0.80;;;;;;;9.32;47.36;100895.13;4999852;28;20039;-83
2023/11/08 05:29:42;;;;;;;2.92;1.02;;;;;;;9.29;47.21;100900.84;5003260;28;20144;-83
2023/11/08 05:32:10;;;;;;;2.50;1.17;;;;;;;9.28;47.12;100899.97;5021285;28;20057;-84
2023/11/08 05:34:40;;;;;;;2.30;1.10;;;;;;;9.31;47.58;100897.00;5002600;28;20066;-85
2023/11/08 05:37:08;;;;;;;2.60;1.00;;;;;;;9.28;47.37;100901.81;5004992;28;20166;-84
2023/11/08 05:39:36;;;;;;;2.63;0.90;;;;;;;9.28;47.12;100899.97;5009639;28;20145;-84
2023/11/08 05:42:05;;;;;;;2.88;1.02;;;;;;;9.25;47.55;100893.88;5015418;28;20158;-84
2023/11/08 05:44:33;;;;;;;3.92;1.00;;;;;;;9.23;47.30;100895.88;5018999;28;20053;-85
2023/11/08 05:47:01;;;;;;;2.35;1.05;;;;;;;9.25;47.27;100899.31;4999626;28;20077;-85
2023/11/08 05:49:30;;;;;;;2.78;1.33;;;;;;;9.23;47.24;100901.34;5003059;28;20061;-85
2023/11/08 05:51:59;;;;;;;2.08;0.90;;;;;;;9.23;47.58;100893.16;5017654;28;20042;-84
2023/11/08 05:54:27;;;;;;;2.08;1.02;;;;;;;9.20;47.15;100896.97;5004363;28;20514;-84
2023/11/08 05:56:56;;;;;;;2.30;1.10;;;;;;;9.19;47.27;100902.56;5002376;28;20096;-84
2023/11/08 05:59:24;;;;;;;2.85;1.10;;;;;;;9.16;47.50;100909.16;4997932;28;20065;-84
2023/11/08 06:01:51;;;;;;;2.15;1.10;;;;;;;9.17;47.67;100901.81;5016074;28;20628;-85
2023/11/08 06:04:20;;;;;;;2.72;1.10;;;;;;;9.16;47.31;100908.28;5002410;28;20136;-85
2023/11/08 06:06:48;;;;;;;2.17;1.00;;;;;;;9.16;47.68;100908.28;4999808;28;20125;-84
2023/11/08 06:09:18;;;;;;;2.05;0.88;;;;;;;9.16;47.27;100911.91;5001177;28;20061;-83
2023/11/08 06:11:46;;;;;;;2.90;1.00;;;;;;;9.13;47.33;100909.41;4997227;28;20135;-85
2023/11/08 06:14:14;;;;;;;3.45;1.23;;;;;;;9.13;47.52;100905.81;5013324;28;20520;-84
2023/11/08 06:16:42;;;;;;;2.33;1.10;;;;;;;9.13;47.56;100911.25;5002718;28;20141;-85
2023/11/08 06:19:10;;;;;;;2.65;1.13;;;;;;;9.12;47.61;100904.94;4997262;28;20065;-84
2023/11/08 06:21:38;;;;;;;2.03;0.98;;;;;;;9.09;47.85;100910.63;4996445;28;20052;-84
2023/11/08 06:24:07;;;;;;;3.58;1.23;;;;;;;9.09;47.60;100913.34;4997501;28;20573;-84
2023/11/08 06:26:36;;;;;;;3.97;1.20;;;;;;;9.11;47.70;100919.56;4994231;28;20512;-83
2023/11/08 06:29:04;;;;;;;3.05;1.10;;;;;;;9.09;47.64;100921.53;4996338;28;20049;-83
2023/11/08 06:31:36;;;;;;;3.03;1.20;;;;;;;9.10;47.57;100926.03;4996939;28;20050;-84
2023/11/08 06:34:05;;;;;;;2.78;1.20;;;;;;;9.06;47.75;100927.28;4989293;28;20043;-83
2023/11/08 06:36:33;;;;;;;1.92;0.95;;;;;;;9.08;47.69;100938.94;4977674;28;20093;-83
2023/11/08 06:39:01;;;;;;;3.45;1.20;;;;;;;9.07;47.66;100932.63;4970824;28;20049;-83
2023/11/08 06:41:29;;;;;;;4.03;1.15;;;;;;;9.07;48.02;100938.06;4982723;28;20068;-82
2023/11/08 06:43:58;;;;;;;3.28;1.20;;;;;;;9.08;47.52;100938.94;4984219;28;20102;-84
2023/11/08 06:46:26;;;;;;;3.55;1.30;;;;;;;9.06;48.01;100952.72;4985823;28;20046;-86
2023/11/08 06:48:57;;;;;;;3.28;1.10;;;;;;;9.06;48.10;100946.38;4985933;28;20074;-85
2023/11/08 06:51:26;;;;;;;3.55;1.50;;;;;;;9.08;47.85;100958.06;4981271;28;20064;-84
2023/11/08 06:53:54;;;;;;;3.22;1.40;;;;;;;9.07;48.07;100961.78;4996520;28;20751;-85
2023/11/08 06:56:24;;;;;;;2.33;1.13;;;;;;;9.06;48.15;100960.91;4985234;28;20050;-85
2023/11/08 06:58:53;;;;;;;4.05;1.38;;;;;;;9.07;48.14;100959.06;5000270;28;20054;-84
2023/11/08 07:01:27;;;;;;;4.53;1.30;;;;;;;9.09;48.40;100957.91;4984066;28;20051;-85
2023/11/08 07:03:56;;;;;;;3.60;1.30;;;;;;;9.07;48.25;100964.50;4990474;28;20387;-85
2023/11/08 07:06:25;;;;;;;3.20;1.30;;;;;;;9.09;48.07;100963.38;4989293;28;20297;-85
2023/11/08 07:08:59;;;;;;;2.67;1.40;;;;;;;9.08;48.46;100966.25;5012152;28;20104;-85
2023/11/08 07:11:28;;;;;;;4.15;1.23;;;;;;;9.09;48.57;100957.03;4994303;28;20058;-83
2023/11/08 07:13:56;;;;;;;3.70;1.45;;;;;;;9.10;48.20;100961.50;5012288;28;20077;-85
2023/11/08 07:16:24;;;;;;;2.20;1.20;;;;;;;9.10;48.49;100956.06;5002367;28;20058;-84
2023/11/08 07:18:53;;;;;;;2.92;1.50;;;;;;;9.12;48.36;100955.94;5009213;28;20561;-84
2023/11/08 07:21:24;;;;;;;4.25;1.48;;;;;;;9.09;48.50;100957.91;5007868;28;20045;-84
2023/11/08 07:23:54;;;;;;;5.47;2.08;;;;;;;9.08;48.66;100956.16;5009939;28;20046;-84
2023/11/08 07:26:23;;;;;;;3.83;1.80;;;;;;;9.08;48.62;100953.44;4993678;28;20049;-84
2023/11/08 07:28:51;;;;;;;3.70;1.60;;;;;;;9.10;48.34;100954.19;4994029;28;20056;-85
2023/11/08 07:31:19;;;;;;;4.30;1.90;;;;;;;9.12;48.80;100953.19;5009175;28;20450;-85
2023/11/08 07:33:47;;;;;;;3.75;1.70;;;;;;;9.10;48.28;100956.94;5000472;28;20069;-88
2023/11/08 07:36:18;;;;;;;4.95;1.70;;;;;;;9.12;48.47;100951.34;5000957;28;20177;-85
2023/11/08 07:38:46;;;;;;;5.20;1.75;;;;;;;9.16;48.44;100949.25;4998132;28;20061;-85
2023/11/08 07:41:14;;;;;;;3.22;1.50;;;;;;;9.14;48.74;100943.91;4989347;28;20526;-84
2023/11/08 07:43:42;;;;;;;4.70;1.67;;;;;;;9.16;48.88;100949.25;4991580;28;20050;-85
2023/11/08 07:46:10;;;;;;;3.17;1.25;;;;;;;9.19;48.82;100944.41;4990208;28;20050;-84
2023/11/08 07:48:38;;;;;;;3.25;1.30;;;;;;;9.20;48.67;100948.00;4991501;28;20069;-85
2023/11/08 07:51:08;;;;;;;3.70;1.30;;;;;;;9.22;48.53;100954.22;4991453;28;20073;-84
2023/11/08 07:53:37;;;;;;;3.15;1.40;;;;;;;9.23;48.77;100955.97;4991160;28;20061;-85
2023/11/08 07:56:07;;;;;;;4.72;1.20;;;;;;;9.25;48.74;100948.47;4984615;28;20070;-85
2023/11/08 07:58:36;;;;;;;3.03;1.30;;;;;;;9.26;48.81;100953.81;4987843;28;20042;-84
2023/11/08 08:01:05;;;;;;;2.30;1.15;;;;;;;9.27;48.46;100950.09;4983960;28;20457;-84
2023/11/08 08:03:33;;;;;;;2.85;1.50;;;;;;;9.28;48.52;100961.91;4990202;28;20052;-86
2023/11/08 08:06:04;;;;;;;3.17;1.23;;;;;;;9.29;48.29;100959.06;5013865;28;20116;-85
2023/11/08 08:08:33;;;;;;;3.58;1.52;;;;;;;9.29;48.68;100950.88;4991077;28;20050;-86
2023/11/08 08:11:03;;;;;;;3.03;1.55;;;;;;;9.32;48.25;100949.75;4994625;28;20035;-83
2023/11/08 08:13:31;;;;;;;5.30;1.50;;;;;;;9.31;48.50;100951.63;4997859;28;20112;-85
2023/11/08 08:16:00;;;;;;;4.45;1.38;;;;;;;9.32;48.88;100952.50;4995795;28;20049;-88
2023/11/08 08:18:28;;;;;;;4.07;1.45;;;;;;;9.32;48.32;100955.22;4999591;28;20061;-87
2023/11/08 08:20:57;;;;;;;3.75;1.25;;;;;;;9.35;48.61;100964.00;4997718;28;20045;-83
2023/11/08 08:23:25;;;;;;;3.38;1.17;;;;;;;9.38;48.76;100971.09;4998724;28;20080;-88
2023/11/08 08:25:53;;;;;;;1.90;1.00;;;;;;;9.39;48.59;100962.81;4998041;28;20050;-86
2023/11/08 08:28:23;;;;;;;3.83;1.30;;;;;;;9.42;48.39;100958.94;4999235;28;20058;-87
2023/11/08 08:30:52;;;;;;;3.13;1.13;;;;;;;9.42;48.58;100959.81;4991957;28;20050;-88
2023/11/08 08:33:21;;;;;;;3.90;1.35;;;;;;;9.41;48.57;100962.69;4995250;28;20048;-87
2023/11/08 08:35:50;;;;;;;3.50;1.10;;;;;;;9.44;48.53;100974.22;5037226;28;20037;-86
2023/11/08 08:38:19;;;;;;;4.47;1.20;;;;;;;9.49;48.99;100964.81;5022106;28;20054;-86
2023/11/08 08:40:49;;;;;;;2.65;0.95;;;;;;;9.51;48.55;100971.00;4988408;28;20506;-86
2023/11/08 08:43:20;;;;;;;2.83;1.15;;;;;;;9.53;48.57;100961.69;4980239;28;20050;-87
2023/11/08 08:45:50;;;;;;;3.08;1.10;;;;;;;9.56;48.55;100955.13;4978265;28;20059;-88
2023/11/08 08:48:19;;;;;;;3.78;1.15;;;;;;;9.60;48.58;100964.78;4969524;28;20125;-86
2023/11/08 08:50:47;;;;;;;2.90;1.30;;;;;;;9.63;48.85;100959.06;5017603;28;20084;-86
2023/11/08 08:53:15;;;;;;;3.70;1.38;;;;;;;9.67;48.74;100955.94;4999756;28;20046;-87
2023/11/08 08:55:44;;;;;;;3.08;1.23;;;;;;;9.71;48.69;100959.31;5011022;28;20129;-85
2023/11/08 08:58:12;;;;;;;2.33;1.10;;;;;;;9.72;48.99;100959.19;4997204;28;20263;-86
2023/11/08 09:00:40;;;;;;;3.67;1.20;;;;;;;9.77;48.73;100961.53;4989761;28;20362;-87
2023/11/08 09:03:09;;;;;;;2.28;1.35;;;;;;;9.81;48.82;100963.91;4973690;28;20534;-87
2023/11/08 09:05:37;;;;;;;4.72;1.20;;;;;;;9.87;48.83;100964.38;4998366;28;20051;-87
2023/11/08 09:08:06;;;;;;;2.88;1.10;;;;;;;9.93;48.94;100961.13;4990964;28;20310;-85
2023/11/08 09:10:34;;;;;;;4.47;1.02;;;;;;;9.98;48.63;100969.84;4997843;28;20074;-86
2023/11/08 09:13:02;;;;;;;3.58;1.50;;;;;;;10.04;48.81;100964.72;4997316;28;20054;-85
2023/11/08 09:15:32;;;;;;;4.43;1.10;;;;;;;10.09;49.06;100965.19;5002512;28;20295;-85
2023/11/08 09:18:00;;;;;;;1.92;0.80;;;;;;;10.15;48.60;100966.56;4994120;28;20070;-86
2023/11/08 09:20:30;;;;;;;3.80;1.20;;;;;;;10.21;48.60;100966.91;4977046;28;20042;-87
2023/11/08 09:23:00;;;;;;;5.28;1.42;;;;;;;10.28;48.46;100972.72;4993137;28;20116;-85
2023/11/08 09:25:28;;;;;;;2.58;1.10;;;;;;;10.33;48.56;100977.78;4998330;28;20061;-87
2023/11/08 09:27:56;;;;;;;2.67;0.93;;;;;;;10.40;48.10;100968.09;5013593;28;20050;-85
2023/11/08 09:30:24;;;;;;;4.18;1.25;;;;;;;10.44;48.19;100981.34;4995905;28;20494;-84
2023/11/08 09:32:53;;;;;;;2.47;1.17;;;;;;;10.48;48.23;100977.34;5015314;28;20167;-85
2023/11/08 09:35:24;;;;;;;3.83;1.05;;;;;;;10.55;48.10;100981.34;5018477;28;20421;-86
2023/11/08 09:37:55;;;;;;;3.55;1.23;;;;;;;10.63;47.49;100979.81;4994557;28;20058;-89
2023/11/08 09:40:23;;;;;;;4.40;1.27;;;;;;;10.65;47.55;100984.13;4992139;28;20065;-87
2023/11/08 09:42:53;;;;;;;3.47;1.20;;;;;;;10.69;47.29;100979.28;4993389;28;20046;-86
2023/11/08 09:45:25;;;;;;;3.60;1.10;;;;;;;10.73;47.33;100976.13;4993258;28;20125;-87
2023/11/08 09:47:54;;;;;;;2.60;1.02;;;;;;;10.73;46.94;100978.88;4995345;28;20204;-88
2023/11/08 09:50:24;;;;;;;3.97;1.20;;;;;;;10.77;46.62;100974.88;4995186;28;20034;-86
2023/11/08 09:52:54;;;;;;;2.88;1.10;;;;;;;10.81;46.52;100978.25;4993440;28;20882;-87
2023/11/08 09:55:22;;;;;;;3.70;1.30;;;;;;;10.82;46.53;100978.09;4994432;28;20050;-86
2023/11/08 09:57:51;;;;;;;3.13;1.13;;;;;;;10.84;46.79;100975.22;5007088;28;20088;-85
2023/11/08 10:00:20;;;;;;;3.75;1.20;;;;;;;10.83;46.64;100974.34;5008211;28;20052;-87
2023/11/08 10:02:53;;;;;;;3.13;1.40;;;;;;;10.88;45.68;100971.22;5008693;28;20081;-88
2023/11/08 10:05:22;;;;;;;2.88;1.40;;;;;;;10.86;46.45;100974.09;4991371;28;20078;-86
2023/11/08 10:07:51;;;;;;;3.67;1.00;;;;;;;10.90;45.87;100969.19;4999676;28;20061;-85
2023/11/08 10:10:21;;;;;;;2.03;0.90;;;;;;;10.94;46.16;100957.00;5013186;28;20062;-85
2023/11/08 10:13:08;;;;;;;3.85;1.10;;;;;;;10.92;45.28;100954.38;5014619;28;20077;-84
2023/11/08 10:15:57;;;;;;;2.55;1.13;;;;;;;10.97;45.22;100970.44;5007436;28;20058;-87
2023/11/08 10:18:54;;;;;;;3.97;1.17;;;;;;;10.98;44.94;100963.91;4995939;28;20050;-86
2023/11/08 10:21:47;;;;;;;3.10;1.17;;;;;;;10.98;45.06;100959.31;4990956;28;20144;-86
2023/11/08 10:24:16;;;;;;;3.78;1.10;;;;;;;10.98;45.87;100953.84;4993918;28;20116;-84
2023/11/08 10:26:46;;;;;;;3.30;1.10;;;;;;;11.00;45.58;100945.50;4998920;28;20081;-85
2023/11/08 10:29:16;;;;;;;3.33;1.02;;;;;;;11.03;45.75;100953.44;4999607;28;20050;-85
2023/11/08 10:31:45;;;;;;;3.45;1.25;;;;;;;11.06;45.17;100944.94;4998323;28;20281;-84
2023/11/08 10:34:15;;;;;;;3.95;1.10;;;;;;;11.08;45.61;100937.47;4999870;28;20073;-84
2023/11/08 10:36:44;;;;;;;2.40;1.17;;;;;;;11.10;45.26;100943.69;4999933;28;20054;-86
2023/11/08 10:39:14;;;;;;;4.95;1.20;;;;;;;11.13;45.22;100943.41;5000627;28;20212;-85
2023/11/08 10:41:44;;;;;;;3.30;1.38;;;;;;;11.14;44.71;100934.16;5001693;28;20053;-84
2023/11/08 10:44:14;;;;;;;2.15;0.90;;;;;;;11.15;44.42;100937.78;5002228;28;20050;-85
2023/11/08 10:46:44;;;;;;;2.95;1.10;;;;;;;11.17;44.39;100933.03;4999987;28;20052;-86
2023/11/08 10:49:12;;;;;;;2.80;1.00;;;;;;;11.17;44.41;100936.66;5001724;28;20140;-85
2023/11/08 10:51:41;;;;;;;4.18;1.20;;;;;;;11.20;44.40;100952.81;5004889;28;20057;-84
2023/11/08 10:54:10;;;;;;;3.55;0.93;;;;;;;11.20;44.71;100930.91;5002671;28;20046;-85
2023/11/08 10:56:38;;;;;;;3.63;1.20;;;;;;;11.22;44.87;100934.38;5000262;28;20061;-85
2023/11/08 10:59:12;;;;;;;4.28;1.35;;;;;;;11.27;44.13;100939.44;4995908;28;20046;-86
2023/11/08 11:01:43;;;;;;;3.13;1.42;;;;;;;11.27;44.33;100921.13;5001837;28;20096;-85
2023/11/08 11:04:13;;;;;;;3.60;1.20;;;;;;;11.28;44.48;100924.75;5016141;28;20058;-85
2023/11/08 11:06:42;;;;;;;3.03;1.10;;;;;;;11.32;44.57;100917.97;4997515;28;20546;-85
2023/11/08 11:09:11;;;;;;;6.50;1.00;;;;;;;11.36;44.96;100916.69;5011759;28;20555;-86
2023/11/08 11:11:42;;;;;;;4.15;1.00;;;;;;;11.43;44.86;100922.50;4995106;28;20060;-86
2023/11/08 11:14:21;;;;;;;3.90;1.10;;;;;;;11.46;43.80;100917.63;4991170;28;20048;-86
2023/11/08 11:16:57;;;;;;;2.70;1.00;;;;;;;11.48;43.74;100922.94;5011620;28;20051;-86
2023/11/08 11:19:30;;;;;;;3.17;1.08;;;;;;;11.53;44.12;100915.19;4988685;28;20058;-86
2023/11/08 11:22:07;;;;;;;4.93;1.00;;;;;;;11.55;43.68;100918.66;4992123;28;20042;-87
2023/11/08 11:24:39;;;;;;;2.47;1.00;;;;;;;11.57;43.84;100894.69;4989863;28;20058;-86
2023/11/08 11:27:10;;;;;;;3.65;1.10;;;;;;;11.60;44.01;100905.38;4997568;28;20054;-88
2023/11/08 11:29:41;;;;;;;2.38;0.85;;;;;;;11.60;43.82;100892.53;5013802;28;20133;-87
2023/11/08 11:32:40;;;;;;;2.17;1.00;;;;;;;11.65;42.96;100894.88;5000444;28;20518;-87
2023/11/08 11:35:12;;;;;;;3.22;1.10;;;;;;;11.64;43.43;100894.00;5005411;28;20077;-84
2023/11/08 11:37:41;;;;;;;2.00;0.90;;;;;;;11.65;43.74;100892.16;5015283;28;20159;-85
2023/11/08 11:40:14;;;;;;;2.40;0.82;;;;;;;11.70;42.97;100895.34;5015686;28;20037;-85
2023/11/08 11:42:45;;;;;;;3.65;1.08;;;;;;;11.66;43.02;100894.75;5013945;28;20050;-86